Time;durP1;ratioP1;P1;durP2;ratioP2;P2;SDS_P1;SDS_P2;PMS_P1;PMS_P2;Temp;Humidity;BMP_temperature;BMP_pressure;BME280_temperature;BME280_humidity;BME280_pressure;Samples;Min_cycle;Max_cycle;Signal;HPM_P1;HPM_P2
2022/08/10 00:02:25;;;;;;;1.85;1.08;;;20.50;70.50;;;;;;5049467;28;20039;-62
2022/08/10 00:04:50;;;;;;;1.88;1.13;;;20.50;70.60;;;;;;5047299;28;20037;-62
2022/08/10 00:07:17;;;;;;;1.73;1.00;;;20.40;70.70;;;;;;5047538;28;20095;-62
2022/08/10 00:09:42;;;;;;;2.28;1.20;;;20.40;70.80;;;;;;5047094;28;20135;-62
2022/08/10 00:12:08;;;;;;;2.25;1.20;;;20.40;70.80;;;;;;5048324;28;20080;-62
2022/08/10 00:14:33;;;;;;;1.85;1.15;;;20.40;70.90;;;;;;5047898;28;20049;-62
2022/08/10 00:16:59;;;;;;;2.65;1.25;;;20.30;71.20;;;;;;5030436;28;20021;-62
2022/08/10 00:19:24;;;;;;;3.60;1.40;;;20.30;71.30;;;;;;5045367;28;20029;-62
2022/08/10 00:21:50;;;;;;;3.45;1.33;;;20.30;71.70;;;;;;5047459;28;20029;-62
2022/08/10 00:24:15;;;;;;;2.25;1.42;;;20.20;71.90;;;;;;5049408;28;21022;-63
2022/08/10 00:26:41;;;;;;;3.95;1.23;;;20.20;72.00;;;;;;5048694;28;20024;-62
2022/08/10 00:29:07;;;;;;;2.63;1.48;;;20.10;72.10;;;;;;5046210;28;20036;-62
2022/08/10 00:31:32;;;;;;;2.30;1.45;;;20.10;72.50;;;;;;5047040;28;20083;-62
2022/08/10 00:33:58;;;;;;;1.77;1.50;;;20.00;72.60;;;;;;5030437;28;20466;-62
2022/08/10 00:36:23;;;;;;;2.00;1.52;;;20.00;72.90;;;;;;5029881;28;20060;-61
2022/08/10 00:38:49;;;;;;;2.08;1.35;;;19.90;73.20;;;;;;5047162;28;20025;-62
2022/08/10 00:41:14;;;;;;;2.10;1.58;;;19.90;73.30;;;;;;5044440;28;20761;-62
2022/08/10 00:43:40;;;;;;;2.42;1.60;;;19.80;73.20;;;;;;5050529;28;20025;-62
2022/08/10 00:46:05;;;;;;;2.25;1.45;;;19.80;73.50;;;;;;5047959;28;20072;-62
2022/08/10 00:48:31;;;;;;;2.40;1.60;;;19.80;73.80;;;;;;5021975;28;20021;-62
2022/08/10 00:50:58;;;;;;;2.70;1.80;;;19.70;74.10;;;;;;5047526;28;20414;-62
2022/08/10 00:53:25;;;;;;;2.10;1.40;;;19.60;74.40;;;;;;5047518;28;20416;-62
2022/08/10 00:55:50;;;;;;;2.72;1.40;;;19.60;74.40;;;;;;5047625;28;20020;-62
2022/08/10 00:58:16;;;;;;;2.08;1.42;;;19.60;74.50;;;;;;5046594;28;20029;-62
2022/08/10 01:00:42;;;;;;;1.85;1.40;;;19.50;74.90;;;;;;5030970;28;20432;-62
2022/08/10 01:03:08;;;;;;;2.67;1.40;;;19.50;75.10;;;;;;5046949;28;20029;-62
2022/08/10 01:06:10;;;;;;;2.63;1.38;;;19.50;75.30;;;;;;5047654;28;20021;-62
2022/08/10 01:09:05;;;;;;;2.90;1.20;;;19.50;75.30;;;;;;5046970;28;20492;-62
2022/08/10 01:11:48;;;;;;;1.73;1.20;;;19.50;75.60;;;;;;5000671;28;20037;-62
2022/08/10 01:14:36;;;;;;;2.25;1.15;;;19.40;75.80;;;;;;5047644;28;20079;-62
2022/08/10 01:17:14;;;;;;;1.23;1.10;;;19.40;75.90;;;;;;5046110;28;20121;-62
2022/08/10 01:19:59;;;;;;;1.48;1.10;;;19.30;76.20;;;;;;5016902;28;20105;-62
2022/08/10 01:22:51;;;;;;;1.92;1.35;;;19.30;76.10;;;;;;5045793;28;20380;-62
2022/08/10 01:25:34;;;;;;;3.15;1.23;;;19.30;76.20;;;;;;5046960;28;20021;-62
2022/08/10 01:28:34;;;;;;;1.45;1.15;;;19.20;76.30;;;;;;5017711;28;20033;-62
2022/08/10 01:31:01;;;;;;;1.98;1.50;;;19.10;76.50;;;;;;5046176;28;20032;-62
2022/08/10 01:33:46;;;;;;;1.77;1.13;;;19.00;76.90;;;;;;5042352;28;20493;-62
2022/08/10 01:36:16;;;;;;;2.35;1.48;;;19.00;76.90;;;;;;5046136;28;20021;-62
2022/08/10 01:38:48;;;;;;;2.20;1.55;;;19.00;77.60;;;;;;5046772;28;20025;-61
2022/08/10 01:41:22;;;;;;;2.33;1.70;;;18.90;77.70;;;;;;5045658;28;20020;-62
2022/08/10 01:43:54;;;;;;;2.08;1.65;;;18.90;78.60;;;;;;5015935;28;20029;-62
2022/08/10 01:46:22;;;;;;;2.05;1.27;;;18.90;78.30;;;;;;5046007;28;20024;-62
2022/08/10 01:48:51;;;;;;;3.00;1.35;;;18.80;78.30;;;;;;5043636;28;20362;-62
2022/08/10 01:51:29;;;;;;;1.63;1.25;;;18.80;78.70;;;;;;5047146;28;20033;-62
2022/08/10 01:54:06;;;;;;;2.67;1.90;;;18.80;78.70;;;;;;5046546;28;20009;-62
2022/08/10 01:56:35;;;;;;;4.25;1.35;;;18.80;79.00;;;;;;5044649;28;20021;-62
2022/08/10 01:59:06;;;;;;;3.03;1.77;;;18.70;79.30;;;;;;5048502;28;20033;-62
2022/08/10 02:01:42;;;;;;;4.45;1.17;;;18.70;79.40;;;;;;5046902;28;20017;-62
2022/08/10 02:04:11;;;;;;;1.70;1.10;;;18.70;79.50;;;;;;5046657;28;20428;-62
2022/08/10 02:06:44;;;;;;;2.15;1.17;;;18.60;79.80;;;;;;5044182;28;20053;-62
2022/08/10 02:09:14;;;;;;;2.47;1.10;;;18.70;80.00;;;;;;5042829;28;20044;-61
2022/08/10 02:11:40;;;;;;;1.60;1.20;;;18.60;80.20;;;;;;5029545;28;20048;-62
2022/08/10 02:14:35;;;;;;;1.67;1.00;;;18.60;80.30;;;;;;5044740;28;20025;-62
2022/08/10 02:17:05;;;;;;;1.75;1.08;;;18.60;80.30;;;;;;5046970;28;20025;-62
2022/08/10 02:19:34;;;;;;;1.65;1.20;;;18.50;80.60;;;;;;5018337;28;20021;-61
2022/08/10 02:22:01;;;;;;;1.60;1.13;;;18.50;80.80;;;;;;5045999;28;20067;-62
2022/08/10 02:24:28;;;;;;;2.00;1.40;;;18.50;81.10;;;;;;5045273;28;20035;-62
2022/08/10 02:26:54;;;;;;;1.60;0.85;;;18.40;81.20;;;;;;5047194;28;20584;-62
2022/08/10 02:29:20;;;;;;;2.03;1.02;;;18.50;81.30;;;;;;5043518;28;20075;-62
2022/08/10 02:31:46;;;;;;;1.42;1.02;;;18.40;81.60;;;;;;5045271;28;20041;-62
2022/08/10 02:34:14;;;;;;;1.58;1.00;;;18.40;81.70;;;;;;5031022;28;20109;-62
2022/08/10 02:36:46;;;;;;;2.13;0.90;;;18.40;81.70;;;;;;5050590;28;20112;-62
2022/08/10 02:39:14;;;;;;;3.03;1.00;;;18.30;81.80;;;;;;5047427;28;20059;-62
2022/08/10 02:41:45;;;;;;;1.77;1.00;;;18.30;82.00;;;;;;5050139;28;20534;-62
2022/08/10 02:44:38;;;;;;;3.53;0.90;;;18.30;82.30;;;;;;5051786;28;20025;-62
2022/08/10 02:47:32;;;;;;;2.30;1.10;;;18.30;82.20;;;;;;5049383;28;20039;-62
2022/08/10 02:50:27;;;;;;;1.40;0.95;;;18.20;82.60;;;;;;5033711;28;20087;-62
2022/08/10 02:52:59;;;;;;;1.98;1.20;;;18.20;82.80;;;;;;5050880;28;20063;-62
2022/08/10 02:55:40;;;;;;;2.42;1.27;;;18.20;83.00;;;;;;5049998;28;20485;-62
2022/08/10 02:58:09;;;;;;;1.75;1.00;;;18.10;83.30;;;;;;5046780;28;20032;-62
2022/08/10 03:00:42;;;;;;;1.67;1.35;;;18.10;83.50;;;;;;5051196;28;20029;-62
2022/08/10 03:03:13;;;;;;;1.33;0.98;;;18.00;83.60;;;;;;5049297;28;20101;-62
2022/08/10 03:05:39;;;;;;;1.45;1.00;;;18.00;83.80;;;;;;5049283;28;20021;-62
2022/08/10 03:08:06;;;;;;;2.05;1.52;;;18.00;83.90;;;;;;5048216;28;20029;-61
2022/08/10 03:10:38;;;;;;;2.20;1.20;;;18.00;84.00;;;;;;5050804;28;20039;-62
2022/08/10 03:13:06;;;;;;;2.28;1.25;;;18.00;84.00;;;;;;5048912;28;20354;-61
2022/08/10 03:15:34;;;;;;;1.80;1.10;;;18.00;84.20;;;;;;5047075;28;20029;-62
2022/08/10 03:18:01;;;;;;;1.90;1.20;;;18.00;84.40;;;;;;5049341;28;20461;-62
2022/08/10 03:20:31;;;;;;;3.33;1.60;;;17.90;84.70;;;;;;5049145;28;20538;-61
2022/08/10 03:22:58;;;;;;;3.42;1.60;;;17.90;85.10;;;;;;5047100;28;20044;-62
2022/08/10 03:25:27;;;;;;;1.88;1.50;;;17.80;85.40;;;;;;5049700;28;20063;-62
2022/08/10 03:27:53;;;;;;;2.22;1.40;;;17.80;85.60;;;;;;5029385;28;20029;-61
2022/08/10 03:30:19;;;;;;;1.70;1.33;;;17.80;85.70;;;;;;5047312;28;20044;-62
2022/08/10 03:32:45;;;;;;;2.03;1.60;;;17.80;86.20;;;;;;5048604;28;20041;-62
2022/08/10 03:35:11;;;;;;;2.05;1.30;;;17.70;86.50;;;;;;5050400;28;20090;-62
2022/08/10 03:37:37;;;;;;;3.05;1.70;;;17.70;86.60;;;;;;5049264;28;20416;-62
2022/08/10 03:40:05;;;;;;;3.08;1.70;;;17.60;87.00;;;;;;5048452;28;20548;-62
2022/08/10 03:42:34;;;;;;;2.78;1.70;;;17.60;87.20;;;;;;5048279;28;20100;-62
2022/08/10 03:45:03;;;;;;;4.32;2.17;;;17.60;87.60;;;;;;5049992;28;20040;-62
2022/08/10 03:47:29;;;;;;;2.20;2.00;;;17.60;87.90;;;;;;5048958;28;20071;-62
2022/08/10 03:49:56;;;;;;;2.85;1.80;;;17.60;88.20;;;;;;5046222;28;20022;-61
2022/08/10 03:52:22;;;;;;;2.63;1.80;;;17.50;88.40;;;;;;5049404;28;20372;-61
2022/08/10 03:54:50;;;;;;;2.60;2.00;;;17.50;88.80;;;;;;5046848;28;20024;-62
2022/08/10 03:57:16;;;;;;;2.53;1.58;;;17.50;89.00;;;;;;5048069;28;20029;-61
2022/08/10 03:59:42;;;;;;;2.92;2.20;;;17.50;89.30;;;;;;5049639;28;20072;-61
2022/08/10 04:02:08;;;;;;;2.45;1.95;;;17.50;89.90;;;;;;5049293;28;20075;-62
2022/08/10 04:04:33;;;;;;;2.53;2.03;;;17.50;90.00;;;;;;5048225;28;20025;-62
2022/08/10 04:07:01;;;;;;;3.03;2.30;;;17.50;90.10;;;;;;5048503;28;20056;-61
2022/08/10 04:09:29;;;;;;;2.72;2.17;;;17.40;90.20;;;;;;5045318;28;20587;-62
2022/08/10 04:11:55;;;;;;;3.70;2.70;;;17.40;90.30;;;;;;5049933;28;20043;-61
2022/08/10 04:14:20;;;;;;;5.32;3.00;;;17.40;90.60;;;;;;5048342;28;20026;-62
2022/08/10 04:16:46;;;;;;;3.25;2.60;;;17.30;90.80;;;;;;5048763;28;20029;-62
2022/08/10 04:19:14;;;;;;;3.10;2.80;;;17.30;91.00;;;;;;5046940;28;20025;-61
2022/08/10 04:21:45;;;;;;;3.65;2.50;;;17.30;91.20;;;;;;5046518;28;20049;-62
2022/08/10 04:24:17;;;;;;;3.17;2.88;;;17.20;91.20;;;;;;5031631;28;20420;-61
2022/08/10 04:26:44;;;;;;;3.25;2.40;;;17.30;91.40;;;;;;5049054;28;20021;-62
2022/08/10 04:29:09;;;;;;;2.72;2.40;;;17.20;91.80;;;;;;5026244;28;20075;-61
2022/08/10 04:31:36;;;;;;;4.07;3.08;;;17.20;91.70;;;;;;5047473;28;20024;-61
2022/08/10 04:34:02;;;;;;;3.00;2.70;;;17.20;91.90;;;;;;5046696;28;20083;-62
2022/08/10 04:36:29;;;;;;;4.93;3.10;;;17.20;91.90;;;;;;5049676;28;20095;-62
2022/08/10 04:38:55;;;;;;;3.33;2.55;;;17.20;92.00;;;;;;5047578;28;20044;-61
2022/08/10 04:41:21;;;;;;;4.78;2.80;;;17.10;92.10;;;;;;5047465;28;20021;-61
2022/08/10 04:43:47;;;;;;;4.40;3.10;;;17.10;92.20;;;;;;5045019;28;20040;-61
2022/08/10 04:46:13;;;;;;;4.55;3.40;;;17.10;92.30;;;;;;5048754;28;20025;-61
2022/08/10 04:48:38;;;;;;;5.53;3.30;;;17.10;92.50;;;;;;5047572;28;20032;-61
2022/08/10 04:51:04;;;;;;;5.50;3.33;;;17.10;92.60;;;;;;5047264;28;20037;-61
2022/08/10 04:53:31;;;;;;;4.13;3.65;;;17.10;92.80;;;;;;5046570;28;20014;-61
2022/08/10 04:55:56;;;;;;;4.35;3.70;;;17.10;93.00;;;;;;5047331;28;20033;-62
2022/08/10 04:58:22;;;;;;;5.18;4.22;;;17.10;93.10;;;;;;5046210;28;20017;-61
2022/08/10 05:00:47;;;;;;;4.93;4.22;;;17.00;93.30;;;;;;5048227;28;20075;-61
2022/08/10 05:03:13;;;;;;;5.95;4.55;;;17.10;93.50;;;;;;5028293;28;20148;-61
2022/08/10 05:05:38;;;;;;;5.30;4.20;;;17.10;93.60;;;;;;5046645;28;20055;-62
2022/08/10 05:08:04;;;;;;;4.10;3.70;;;17.10;93.70;;;;;;5045873;28;20112;-61
2022/08/10 05:10:30;;;;;;;4.32;3.88;;;17.10;93.80;;;;;;5047733;28;20025;-61
2022/08/10 05:12:55;;;;;;;5.07;3.90;;;17.10;93.90;;;;;;5045525;28;20021;-61
2022/08/10 05:15:23;;;;;;;6.00;5.03;;;17.20;93.90;;;;;;5046608;28;20016;-62
2022/08/10 05:17:49;;;;;;;6.47;4.85;;;17.20;94.10;;;;;;5046838;28;20049;-62
2022/08/10 05:20:14;;;;;;;7.68;5.35;;;17.20;94.20;;;;;;5047035;28;20470;-61
2022/08/10 05:22:43;;;;;;;7.03;4.72;;;17.20;94.30;;;;;;5046213;28;20033;-61
2022/08/10 05:25:14;;;;;;;6.53;5.20;;;17.20;94.40;;;;;;5047860;28;20033;-62
2022/08/10 05:27:41;;;;;;;7.38;5.18;;;17.20;94.50;;;;;;5046206;28;20086;-61
2022/08/10 05:30:09;;;;;;;6.50;5.40;;;17.20;94.60;;;;;;5048330;28;20037;-62
2022/08/10 05:32:34;;;;;;;7.18;5.70;;;17.30;94.80;;;;;;5044613;28;20025;-61
2022/08/10 05:35:00;;;;;;;7.70;5.07;;;17.30;94.90;;;;;;5047733;28;20086;-61
2022/08/10 05:37:29;;;;;;;5.55;5.00;;;17.30;94.90;;;;;;5046342;28;20321;-61
2022/08/10 05:39:56;;;;;;;8.63;5.93;;;17.40;95.00;;;;;;5045571;28;20044;-61
2022/08/10 05:42:22;;;;;;;5.85;4.78;;;17.30;95.00;;;;;;5047039;28;20036;-61
2022/08/10 05:44:48;;;;;;;6.43;5.57;;;17.40;95.10;;;;;;5047949;28;20029;-61
2022/08/10 05:47:14;;;;;;;6.00;5.25;;;17.40;95.10;;;;;;5046622;28;20082;-61
2022/08/10 05:49:39;;;;;;;7.07;5.85;;;17.50;95.10;;;;;;5046506;28;20456;-61
2022/08/10 05:52:05;;;;;;;8.38;6.13;;;17.50;95.10;;;;;;5046945;28;20033;-61
2022/08/10 05:54:31;;;;;;;9.02;5.93;;;17.50;95.20;;;;;;5042601;28;20025;-62
2022/08/10 05:56:57;;;;;;;6.03;5.38;;;17.50;95.30;;;;;;5045636;28;20029;-61
2022/08/10 05:59:30;;;;;;;7.00;5.22;;;17.50;95.30;;;;;;5046965;28;20025;-61
2022/08/10 06:02:01;;;;;;;7.32;5.07;;;17.60;95.30;;;;;;5049148;28;20029;-61
2022/08/10 06:04:33;;;;;;;6.53;5.75;;;17.60;95.30;;;;;;5047443;28;20033;-62
2022/08/10 06:07:00;;;;;;;6.68;4.90;;;17.70;95.30;;;;;;5044390;28;20057;-61
2022/08/10 06:09:26;;;;;;;6.75;5.47;;;17.70;95.30;;;;;;5045530;28;20499;-61
2022/08/10 06:11:55;;;;;;;7.90;5.57;;;17.70;95.30;;;;;;5065954;28;20025;-61
2022/08/10 06:17:06;;;;;;;6.57;5.45;;;17.80;95.30;;;;;;5066442;28;20442;-61
2022/08/10 06:19:33;;;;;;;5.82;5.22;;;17.90;95.20;;;;;;5058660;28;20017;-61
2022/08/10 06:22:01;;;;;;;6.82;5.00;;;17.90;95.20;;;;;;5065341;28;20025;-61
2022/08/10 06:24:28;;;;;;;6.20;5.00;;;17.90;95.10;;;;;;5068583;28;20025;-61
2022/08/10 06:26:54;;;;;;;5.85;4.43;;;18.00;95.10;;;;;;5042567;28;20032;-61
2022/08/10 06:29:21;;;;;;;6.70;5.28;;;18.00;95.00;;;;;;5055836;28;20032;-61
2022/08/10 06:31:50;;;;;;;6.57;5.10;;;18.10;95.00;;;;;;5047412;28;20120;-62
2022/08/10 06:34:44;;;;;;;7.18;5.32;;;18.10;94.90;;;;;;5039153;28;20026;-61
2022/08/10 06:37:11;;;;;;;5.78;4.90;;;18.20;94.80;;;;;;5028931;28;20033;-61
2022/08/10 06:39:37;;;;;;;5.75;4.95;;;18.20;94.90;;;;;;5049822;28;20029;-61
2022/08/10 06:42:34;;;;;;;6.85;6.15;;;18.20;94.70;;;;;;5066869;28;20361;-61
2022/08/10 06:45:13;;;;;;;6.70;5.00;;;18.30;94.60;;;;;;5063713;28;20556;-61
2022/08/10 06:47:50;;;;;;;7.72;4.72;;;18.30;94.60;;;;;;5063699;28;20511;-61
2022/08/10 06:50:22;;;;;;;6.32;4.57;;;18.40;94.50;;;;;;5063668;28;20025;-61
2022/08/10 06:52:50;;;;;;;6.53;5.00;;;18.40;94.40;;;;;;5043068;28;20468;-61
2022/08/10 06:55:18;;;;;;;5.65;4.65;;;18.50;94.30;;;;;;5059358;28;20024;-61
2022/08/10 06:57:45;;;;;;;6.07;4.45;;;18.50;94.10;;;;;;5068405;28;20020;-61
2022/08/10 07:00:13;;;;;;;6.68;5.03;;;18.50;94.00;;;;;;5066382;28;20518;-62
2022/08/10 07:02:47;;;;;;;6.00;4.85;;;18.60;93.80;;;;;;5060989;28;20036;-62
2022/08/10 07:05:18;;;;;;;5.63;4.65;;;18.70;93.70;;;;;;5060898;28;20036;-61
2022/08/10 07:07:46;;;;;;;7.35;4.70;;;18.80;93.60;;;;;;5054767;28;20099;-61
2022/08/10 07:10:17;;;;;;;5.45;3.60;;;18.80;93.50;;;;;;5059208;28;20024;-61
2022/08/10 07:12:44;;;;;;;5.50;3.67;;;18.90;93.40;;;;;;5044319;28;20036;-61
2022/08/10 07:15:11;;;;;;;6.30;4.10;;;18.90;93.30;;;;;;5048917;28;20536;-61
2022/08/10 07:17:37;;;;;;;5.85;4.15;;;19.00;93.10;;;;;;5040310;28;20489;-62
2022/08/10 07:20:07;;;;;;;7.97;5.20;;;19.10;92.90;;;;;;5048859;28;20030;-61
2022/08/10 07:22:35;;;;;;;5.85;3.90;;;19.10;92.50;;;;;;5040568;28;20025;-61
2022/08/10 07:25:01;;;;;;;5.07;3.97;;;19.20;92.40;;;;;;5036626;28;20409;-63
2022/08/10 07:27:29;;;;;;;5.13;3.80;;;19.30;92.30;;;;;;5052763;28;20021;-61
2022/08/10 07:29:56;;;;;;;4.57;3.60;;;19.30;92.20;;;;;;5042901;28;20021;-61
2022/08/10 07:32:23;;;;;;;4.00;3.05;;;19.40;92.00;;;;;;5038196;28;20037;-61
2022/08/10 07:34:52;;;;;;;4.05;2.90;;;19.50;91.90;;;;;;5041033;28;20021;-61
2022/08/10 07:37:19;;;;;;;4.35;3.20;;;19.60;91.70;;;;;;5042628;28;20439;-61
2022/08/10 07:39:48;;;;;;;4.85;3.00;;;19.60;91.60;;;;;;5042467;28;20393;-61
2022/08/10 07:42:17;;;;;;;4.93;3.23;;;19.70;91.30;;;;;;5049211;28;20017;-61
2022/08/10 07:44:46;;;;;;;4.45;3.53;;;19.80;91.10;;;;;;5039758;28;20074;-61
2022/08/10 07:47:15;;;;;;;4.50;3.53;;;19.90;90.80;;;;;;5036868;28;20076;-61
2022/08/10 07:49:46;;;;;;;7.25;4.45;;;20.00;90.60;;;;;;5039682;28;20032;-61
2022/08/10 07:52:12;;;;;;;4.32;3.60;;;20.00;90.30;;;;;;5033367;28;20061;-61
2022/08/10 07:55:08;;;;;;;4.70;3.13;;;20.10;90.20;;;;;;5033127;28;20517;-61
2022/08/10 07:57:36;;;;;;;3.92;3.13;;;20.20;90.00;;;;;;5046702;28;20417;-61
2022/08/10 08:00:09;;;;;;;4.60;3.15;;;20.30;89.50;;;;;;5052300;28;20021;-61
2022/08/10 08:02:38;;;;;;;5.72;3.25;;;20.40;89.00;;;;;;5060378;28;20055;-61
2022/08/10 08:05:08;;;;;;;3.65;2.95;;;20.50;88.90;;;;;;5054848;28;20448;-61
2022/08/10 08:10:44;;;;;;;;;;;20.70;88.00;;;;;;5048537;28;20040;-61
2022/08/10 08:13:11;;;;;;;4.28;2.50;;;20.70;88.00;;;;;;5046974;28;20012;-61
2022/08/10 08:15:37;;;;;;;3.83;2.38;;;20.70;87.50;;;;;;5021575;28;20484;-61
2022/08/10 08:20:56;;;;;;;3.80;2.28;;;21.00;86.50;;;;;;5057003;28;20571;-62
2022/08/10 08:23:24;;;;;;;3.70;2.88;;;21.10;86.10;;;;;;5058374;28;20047;-61
2022/08/10 08:25:51;;;;;;;3.88;2.20;;;21.20;85.50;;;;;;5060194;28;20026;-61
2022/08/10 08:28:17;;;;;;;3.38;2.20;;;21.30;85.00;;;;;;5051695;28;20031;-61
2022/08/10 08:30:44;;;;;;;2.75;1.90;;;21.40;84.30;;;;;;5050452;28;20025;-61
2022/08/10 08:33:11;;;;;;;3.90;2.67;;;21.50;83.80;;;;;;5052257;28;20115;-62
2022/08/10 08:35:37;;;;;;;7.68;3.45;;;21.60;83.20;;;;;;5041351;28;20033;-61
2022/08/10 08:38:05;;;;;;;4.63;2.45;;;21.70;82.80;;;;;;5061837;28;20035;-61
2022/08/10 08:40:37;;;;;;;3.47;2.15;;;21.80;82.00;;;;;;5055879;28;20040;-61
2022/08/10 08:44:11;;;;;;;4.18;2.00;;;21.90;81.30;;;;;;5043302;28;20056;-61
2022/08/10 08:46:45;;;;;;;3.28;2.00;;;22.00;80.40;;;;;;4910600;29;20065;-61
2022/08/10 08:49:23;;;;;;;4.35;2.08;;;22.10;80.20;;;;;;4932585;29;20027;-61
2022/08/10 08:52:25;;;;;;;4.32;2.08;;;22.20;79.60;;;;;;5016332;28;20112;-61
2022/08/10 08:55:13;;;;;;;4.25;2.03;;;22.30;79.20;;;;;;5044127;28;20047;-61
2022/08/10 08:57:55;;;;;;;2.63;1.75;;;22.40;78.60;;;;;;5039070;28;20021;-61
2022/08/10 09:01:08;;;;;;;2.97;1.60;;;22.50;78.20;;;;;;5035348;28;20557;-61
2022/08/10 09:03:51;;;;;;;3.13;1.65;;;22.60;77.70;;;;;;5036698;28;20127;-61
2022/08/10 09:06:19;;;;;;;2.22;1.38;;;22.70;76.90;;;;;;5036646;28;20414;-61
2022/08/10 09:08:45;;;;;;;2.70;1.60;;;22.90;76.70;;;;;;5042389;28;20045;-62
2022/08/10 09:11:41;;;;;;;5.65;2.10;;;23.00;76.40;;;;;;5039116;28;20022;-61
2022/08/10 09:14:15;;;;;;;1.90;1.30;;;23.10;75.50;;;;;;5039326;28;20032;-62
2022/08/10 09:16:50;;;;;;;2.60;1.50;;;23.20;74.90;;;;;;5052895;28;20029;-61
2022/08/10 09:19:40;;;;;;;2.70;1.42;;;23.40;74.60;;;;;;5054470;28;20029;-61
2022/08/10 09:22:14;;;;;;;4.32;1.55;;;23.40;74.20;;;;;;5045947;28;20029;-62
2022/08/10 09:25:07;;;;;;;2.92;1.50;;;23.60;73.30;;;;;;5043669;28;20029;-62
2022/08/10 09:27:44;;;;;;;3.38;1.52;;;23.80;72.10;;;;;;5043905;28;20053;-61
2022/08/10 09:30:15;;;;;;;2.55;1.33;;;23.90;69.70;;;;;;5056218;28;20625;-62
2022/08/10 09:32:48;;;;;;;4.00;1.45;;;23.90;69.70;;;;;;5047018;28;20059;-61
2022/08/10 09:35:31;;;;;;;2.63;1.10;;;24.10;69.20;;;;;;5044854;28;20100;-61
2022/08/10 09:38:21;;;;;;;2.65;1.50;;;24.20;68.80;;;;;;5046124;28;20017;-62
2022/08/10 09:41:04;;;;;;;2.97;1.60;;;24.30;68.40;;;;;;5042558;28;20024;-61
2022/08/10 09:43:39;;;;;;;3.97;1.30;;;24.40;67.10;;;;;;5043936;28;20362;-61
2022/08/10 09:46:53;;;;;;;2.22;1.52;;;24.50;66.80;;;;;;5046886;28;20043;-61
2022/08/10 09:49:36;;;;;;;2.50;1.13;;;24.70;65.50;;;;;;5032360;28;20107;-62
2022/08/10 09:52:27;;;;;;;4.40;1.35;;;24.80;65.00;;;;;;5064738;28;20028;-61
2022/08/10 09:55:34;;;;;;;5.60;1.85;;;24.90;64.30;;;;;;5035729;28;20018;-61
2022/08/10 09:58:27;;;;;;;3.88;1.52;;;25.10;63.80;;;;;;5014793;28;20195;-61
2022/08/10 10:01:11;;;;;;;2.70;1.30;;;25.10;63.10;;;;;;5056625;28;20024;-61
2022/08/10 10:03:49;;;;;;;1.63;1.10;;;25.30;62.50;;;;;;5060244;28;20020;-61
2022/08/10 10:06:18;;;;;;;2.75;1.17;;;25.30;62.20;;;;;;5053152;28;20042;-62
2022/08/10 10:09:09;;;;;;;;;;;25.40;62.10;;;;;;5062838;28;20021;-62
2022/08/10 10:12:30;;;;;;;1.70;1.00;;;25.50;61.70;;;;;;5035452;28;19912;-62
2022/08/10 10:15:19;;;;;;;2.78;1.10;;;25.60;60.90;;;;;;4942244;29;20031;-62
2022/08/10 10:18:09;;;;;;;2.42;1.30;;;25.70;59.90;;;;;;5029505;28;20033;-62
2022/08/10 10:20:59;;;;;;;1.77;1.08;;;25.90;59.80;;;;;;5066548;28;20021;-62
2022/08/10 10:24:08;;;;;;;2.67;1.02;;;26.00;59.50;;;;;;5044003;28;20420;-62
2022/08/10 10:26:55;;;;;;;1.65;0.90;;;26.20;59.10;;;;;;5051991;28;20358;-61
2022/08/10 10:29:33;;;;;;;1.15;0.98;;;26.30;58.20;;;;;;5034653;28;20029;-62
2022/08/10 10:32:20;;;;;;;1.83;0.90;;;26.40;57.90;;;;;;5050726;28;20028;-62
2022/08/10 10:38:34;;;;;;;3.55;1.10;;;26.70;56.90;;;;;;5036782;28;20036;-61
2022/08/10 10:41:08;;;;;;;1.52;0.90;;;26.80;56.10;;;;;;5048047;28;20079;-62
2022/08/10 10:43:52;;;;;;;1.63;0.93;;;26.90;55.00;;;;;;5056916;28;20516;-62
2022/08/10 10:46:52;;;;;;;1.38;0.80;;;27.10;55.60;;;;;;5039344;28;20025;-61
2022/08/10 10:49:17;;;;;;;1.77;0.90;;;27.20;55.60;;;;;;5036434;28;20466;-62
2022/08/10 10:52:16;;;;;;;1.52;1.05;;;27.30;55.40;;;;;;5063305;28;20079;-62
2022/08/10 10:55:16;;;;;;;1.55;0.90;;;27.50;55.00;;;;;;5036997;28;20026;-62
2022/08/10 10:57:53;;;;;;;2.70;0.80;;;27.60;54.30;;;;;;4989155;28;20101;-62
2022/08/10 11:00:22;;;;;;;1.95;0.90;;;27.70;53.70;;;;;;5048868;28;20103;-62
2022/08/10 11:03:21;;;;;;;3.40;0.77;;;27.80;52.70;;;;;;5040162;28;20025;-62
2022/08/10 11:06:17;;;;;;;1.20;0.80;;;28.00;52.30;;;;;;5037315;28;20045;-62
2022/08/10 11:08:46;;;;;;;1.60;1.00;;;28.20;52.30;;;;;;5043780;28;20053;-62
2022/08/10 11:11:28;;;;;;;2.25;0.90;;;28.30;51.80;;;;;;5054100;28;20032;-62
2022/08/10 11:14:28;;;;;;;2.88;1.00;;;28.40;51.50;;;;;;5055730;28;20075;-62
2022/08/10 11:17:13;;;;;;;1.83;0.93;;;28.60;50.80;;;;;;4997253;28;20033;-63
2022/08/10 11:19:47;;;;;;;1.65;0.82;;;28.70;50.40;;;;;;5043226;28;20014;-62
2022/08/10 11:22:12;;;;;;;1.35;0.70;;;28.90;50.70;;;;;;5042805;28;20075;-62
2022/08/10 11:24:45;;;;;;;1.20;0.88;;;29.10;50.80;;;;;;5036866;28;20021;-62
2022/08/10 11:27:16;;;;;;;1.23;0.90;;;29.30;50.60;;;;;;5040940;28;20472;-62
2022/08/10 11:29:56;;;;;;;2.10;0.88;;;29.50;50.30;;;;;;5056868;28;20029;-62
2022/08/10 11:32:35;;;;;;;1.85;0.70;;;29.70;49.90;;;;;;5038752;28;20473;-61
2022/08/10 11:35:19;;;;;;;0.80;0.60;;;29.90;49.40;;;;;;5040663;28;20021;-62
2022/08/10 11:38:08;;;;;;;2.97;1.80;;;30.10;48.60;;;;;;5042556;28;20480;-62
2022/08/10 11:41:26;;;;;;;;;;;;;;;;;;;;;
2022/08/10 11:44:02;;;;;;;1.07;0.60;;;30.30;47.40;;;;;;5040994;28;20017;-62
2022/08/10 11:46:49;;;;;;;2.70;0.73;;;30.50;47.50;;;;;;5040565;28;20025;-62
2022/08/10 11:49:29;;;;;;;1.30;0.80;;;30.70;47.60;;;;;;5044854;28;20032;-62
2022/08/10 11:52:37;;;;;;;1.25;0.90;;;30.90;47.40;;;;;;5060752;28;20067;-62
2022/08/10 11:55:33;;;;;;;3.53;1.10;;;31.20;46.80;;;;;;5065386;28;20393;-62
2022/08/10 12:01:06;;;;;;;1.90;0.82;;;31.50;45.30;;;;;;5005904;28;20032;-62
2022/08/10 12:03:34;;;;;;;3.50;0.77;;;31.70;45.40;;;;;;5041087;28;20029;-62
2022/08/10 12:06:52;;;;;;;1.00;0.70;;;31.90;45.20;;;;;;5050452;28;20053;-62
2022/08/10 12:09:00;;;;;;;1.70;0.75;;;32.10;44.80;;;;;;5028272;28;20029;-62
2022/08/10 12:11:28;;;;;;;3.28;0.80;;;32.20;44.50;;;;;;5034068;28;20017;-62
2022/08/10 12:14:24;;;;;;;1.03;0.80;;;32.50;44.00;;;;;;5052800;28;20021;-62
2022/08/10 12:17:22;;;;;;;2.05;0.88;;;32.60;43.00;;;;;;5051793;28;20021;-62
2022/08/10 12:20:15;;;;;;;1.67;0.82;;;32.70;42.80;;;;;;5021270;28;20044;-62
2022/08/10 12:22:55;;;;;;;1.25;0.80;;;32.80;42.70;;;;;;5052321;28;20029;-63
2022/08/10 12:25:35;;;;;;;2.58;0.80;;;33.00;43.00;;;;;;5053165;28;20052;-63
2022/08/10 12:28:12;;;;;;;3.30;0.80;;;33.20;42.70;;;;;;5053222;28;20031;-63
2022/08/10 12:30:45;;;;;;;3.47;0.90;;;33.30;41.10;;;;;;5062683;28;20052;-63
2022/08/10 12:33:22;;;;;;;1.42;0.80;;;33.50;41.00;;;;;;5058202;28;20477;-63
2022/08/10 12:35:47;;;;;;;2.05;0.90;;;33.70;41.20;;;;;;5056376;28;20068;-63
2022/08/10 12:38:31;;;;;;;0.90;0.52;;;33.90;41.20;;;;;;5049720;28;20017;-63
2022/08/10 12:41:01;;;;;;;0.70;0.50;;;34.10;41.10;;;;;;5048155;28;20031;-63
2022/08/10 12:43:30;;;;;;;1.80;0.70;;;34.30;41.20;;;;;;5031697;28;20029;-63
2022/08/10 12:46:13;;;;;;;1.98;0.70;;;34.50;40.60;;;;;;5049058;28;20100;-63
2022/08/10 12:49:05;;;;;;;1.38;0.73;;;34.70;40.60;;;;;;5051417;28;20027;-63
2022/08/10 12:51:32;;;;;;;1.38;0.70;;;34.90;40.30;;;;;;5057287;28;20047;-64
2022/08/10 12:54:21;;;;;;;3.35;0.88;;;35.10;39.90;;;;;;5053615;28;20016;-63
2022/08/10 12:56:51;;;;;;;1.00;0.70;;;35.20;39.80;;;;;;5053412;28;20021;-63
2022/08/10 12:59:19;;;;;;;1.60;1.05;;;35.30;40.00;;;;;;5052501;28;20107;-63
2022/08/10 13:01:51;;;;;;;2.20;0.77;;;35.50;39.40;;;;;;5020852;28;20017;-63
2022/08/10 13:04:26;;;;;;;1.33;0.70;;;35.60;39.50;;;;;;5050943;28;20573;-63
2022/08/10 13:07:18;;;;;;;1.27;0.60;;;35.70;39.00;;;;;;5040950;28;20051;-64
2022/08/10 13:09:45;;;;;;;0.98;0.52;;;35.80;38.90;;;;;;5059689;28;20040;-63
2022/08/10 13:12:16;;;;;;;1.98;0.77;;;35.70;38.20;;;;;;5060485;28;20029;-64
2022/08/10 13:14:44;;;;;;;1.17;0.80;;;35.80;37.70;;;;;;5058212;28;20040;-63
2022/08/10 13:17:12;;;;;;;0.90;0.70;;;35.80;37.00;;;;;;5059921;28;20476;-63
2022/08/10 13:19:46;;;;;;;1.70;0.98;;;35.90;37.20;;;;;;5055994;28;20093;-63
2022/08/10 13:22:14;;;;;;;1.55;0.70;;;36.00;37.10;;;;;;5055935;28;20027;-64
2022/08/10 13:24:50;;;;;;;2.30;0.70;;;36.00;37.30;;;;;;5061899;28;20461;-63
2022/08/10 13:27:41;;;;;;;1.10;0.80;;;36.00;36.30;;;;;;5045051;28;20053;-63
2022/08/10 13:30:24;;;;;;;1.17;0.60;;;36.00;36.70;;;;;;5057538;28;20033;-64
2022/08/10 13:32:50;;;;;;;1.33;0.70;;;36.10;36.60;;;;;;5057408;28;20025;-64
2022/08/10 13:35:17;;;;;;;1.75;0.60;;;36.20;36.30;;;;;;5050224;28;20017;-63
2022/08/10 13:37:45;;;;;;;1.15;0.60;;;36.30;36.20;;;;;;5057237;28;20028;-64
2022/08/10 13:40:15;;;;;;;1.35;0.60;;;36.40;36.40;;;;;;5055424;28;20014;-64